Time;durP1;ratioP1;P1;durP2;ratioP2;P2;SDS_P1;SDS_P2;PMS_P1;PMS_P2;Temp;Humidity;BMP_temperature;BMP_pressure;BME280_temperature;BME280_humidity;BME280_pressure;Samples;Min_cycle;Max_cycle;Signal;HPM_P1;HPM_P2
2023/03/19 00:02:06;;;;;;;33.60;25.27;;;10.90;99.90;;;;;;5048809;28;20041;-35
2023/03/19 00:04:33;;;;;;;36.00;25.83;;;10.90;99.90;;;;;;5049686;28;20052;-35
2023/03/19 00:07:01;;;;;;;33.60;25.50;;;10.90;99.90;;;;;;5049937;28;20106;-36
2023/03/19 00:09:28;;;;;;;33.05;25.50;;;10.80;99.90;;;;;;5049123;28;20144;-35
2023/03/19 00:11:55;;;;;;;32.33;23.42;;;10.80;99.90;;;;;;5050948;28;20059;-34
2023/03/19 00:14:21;;;;;;;27.02;22.05;;;10.90;99.90;;;;;;5050295;28;20492;-35
2023/03/19 00:16:48;;;;;;;29.02;22.17;;;10.80;99.90;;;;;;5050718;28;20493;-35
2023/03/19 00:19:15;;;;;;;28.35;21.83;;;10.90;99.90;;;;;;5034660;28;20100;-35
2023/03/19 00:21:42;;;;;;;29.92;22.27;;;10.90;99.90;;;;;;5036382;28;20136;-35
2023/03/19 00:24:10;;;;;;;29.98;22.25;;;10.90;99.90;;;;;;5040613;28;20052;-35
2023/03/19 00:26:37;;;;;;;28.27;21.67;;;10.90;99.90;;;;;;5050473;28;20492;-35
2023/03/19 00:29:04;;;;;;;29.65;22.45;;;10.90;99.90;;;;;;5046262;28;20061;-35
2023/03/19 00:31:31;;;;;;;29.30;22.45;;;10.80;99.90;;;;;;5050103;28;20040;-36
2023/03/19 00:33:58;;;;;;;24.08;20.85;;;10.90;99.90;;;;;;5050521;28;20095;-36
2023/03/19 00:36:26;;;;;;;29.52;22.20;;;10.90;99.90;;;;;;5048345;28;20048;-35
2023/03/19 00:38:52;;;;;;;27.08;21.63;;;10.90;99.90;;;;;;5050429;28;20068;-35
2023/03/19 00:41:21;;;;;;;30.00;22.20;;;10.90;99.90;;;;;;5051200;28;20103;-35
2023/03/19 00:43:52;;;;;;;28.85;22.73;;;10.90;99.90;;;;;;5050419;28;20052;-35
2023/03/19 00:46:18;;;;;;;27.00;21.45;;;10.90;99.90;;;;;;5049841;28;20048;-35
2023/03/19 00:48:45;;;;;;;25.75;21.02;;;10.90;99.90;;;;;;5051746;28;20440;-35
2023/03/19 00:51:12;;;;;;;30.60;21.60;;;10.80;99.90;;;;;;5049143;28;20088;-35
2023/03/19 00:53:39;;;;;;;27.20;21.02;;;10.80;99.90;;;;;;5049213;28;20088;-35
2023/03/19 00:56:06;;;;;;;28.40;22.02;;;10.90;99.90;;;;;;5050281;28;20492;-35
2023/03/19 00:58:37;;;;;;;27.83;21.67;;;10.80;99.90;;;;;;5048299;28;20488;-36
2023/03/19 01:01:04;;;;;;;25.65;21.13;;;10.90;99.90;;;;;;5051008;28;20049;-36
2023/03/19 01:03:31;;;;;;;26.60;21.27;;;10.80;99.90;;;;;;5069135;28;20088;-36
2023/03/19 01:05:58;;;;;;;27.65;20.40;;;10.80;99.90;;;;;;5051554;28;20057;-36
2023/03/19 01:08:25;;;;;;;27.92;21.30;;;10.80;99.90;;;;;;5052019;28;20099;-36
2023/03/19 01:10:52;;;;;;;28.13;20.52;;;10.80;99.90;;;;;;5052585;28;20500;-36
2023/03/19 01:13:19;;;;;;;27.08;20.92;;;10.80;99.90;;;;;;5051640;28;20053;-36
2023/03/19 01:15:47;;;;;;;26.55;19.75;;;10.80;99.90;;;;;;5052662;28;20048;-37
2023/03/19 01:18:14;;;;;;;25.98;19.35;;;10.80;99.90;;;;;;5053730;28;20052;-37
2023/03/19 01:20:42;;;;;;;26.88;18.13;;;10.80;99.90;;;;;;5051352;28;20045;-37
2023/03/19 01:23:08;;;;;;;21.42;15.90;;;10.80;99.90;;;;;;5052776;28;20415;-36
2023/03/19 01:25:35;;;;;;;21.60;16.45;;;10.80;99.90;;;;;;5051881;28;20084;-36
2023/03/19 01:28:02;;;;;;;19.35;15.20;;;10.80;99.90;;;;;;5051451;28;20071;-36
2023/03/19 01:30:29;;;;;;;18.63;14.95;;;10.90;99.90;;;;;;5053034;28;20056;-37
2023/03/19 01:32:57;;;;;;;20.73;13.55;;;10.80;99.90;;;;;;5052533;28;20110;-36
2023/03/19 01:35:24;;;;;;;17.50;13.52;;;10.80;99.90;;;;;;5052630;28;20065;-37
2023/03/19 01:37:51;;;;;;;17.00;12.98;;;10.80;99.90;;;;;;5051752;28;20052;-37
2023/03/19 01:40:18;;;;;;;22.00;14.38;;;10.80;99.90;;;;;;5041480;28;20385;-37
2023/03/19 01:42:52;;;;;;;19.27;13.55;;;10.80;99.90;;;;;;5052430;28;20053;-37
2023/03/19 01:45:31;;;;;;;16.88;13.00;;;10.80;99.90;;;;;;5052690;28;20110;-37
2023/03/19 01:47:59;;;;;;;22.35;13.15;;;10.80;99.90;;;;;;5067120;28;20057;-37
2023/03/19 01:50:29;;;;;;;15.23;12.40;;;10.80;99.90;;;;;;5052312;28;20052;-36
2023/03/19 01:52:56;;;;;;;15.77;11.15;;;10.70;99.90;;;;;;5051700;28;20110;-37
2023/03/19 01:55:22;;;;;;;16.05;10.35;;;10.70;99.90;;;;;;5051846;28;20439;-37
2023/03/19 01:57:50;;;;;;;15.13;9.60;;;10.70;99.90;;;;;;5051929;28;20045;-38
2023/03/19 02:00:17;;;;;;;12.60;8.82;;;10.70;99.90;;;;;;5050773;28;20075;-38
2023/03/19 02:02:44;;;;;;;15.40;8.65;;;10.70;99.90;;;;;;5051236;28;20057;-37
2023/03/19 02:05:14;;;;;;;14.32;8.32;;;10.70;99.90;;;;;;5052043;28;20152;-37
2023/03/19 02:07:41;;;;;;;10.80;7.35;;;10.70;99.90;;;;;;5066613;28;20053;-37
2023/03/19 02:10:10;;;;;;;9.20;7.40;;;10.70;99.90;;;;;;5052560;28;20078;-37
2023/03/19 02:12:37;;;;;;;10.15;6.85;;;10.60;99.90;;;;;;5058440;28;20137;-37
2023/03/19 02:15:06;;;;;;;11.52;6.93;;;10.60;99.90;;;;;;5055304;28;20040;-37
2023/03/19 02:17:32;;;;;;;8.77;7.13;;;10.60;99.90;;;;;;5067266;28;20057;-36
2023/03/19 02:20:01;;;;;;;10.45;7.15;;;10.60;99.90;;;;;;5037603;28;20515;-37
2023/03/19 02:22:30;;;;;;;9.68;7.15;;;10.60;99.90;;;;;;5040207;28;20057;-37
2023/03/19 02:25:01;;;;;;;10.75;6.70;;;10.60;99.90;;;;;;5051175;28;20055;-36
2023/03/19 02:27:30;;;;;;;;;;;10.50;99.90;;;;;;5052701;28;20485;-37
2023/03/19 02:29:56;;;;;;;8.65;6.15;;;10.50;99.90;;;;;;5049785;28;19928;-37
2023/03/19 02:32:23;;;;;;;8.07;6.15;;;10.50;99.90;;;;;;5048122;28;20095;-36
2023/03/19 02:34:50;;;;;;;11.30;6.47;;;10.50;99.90;;;;;;5050593;28;20102;-36
2023/03/19 02:37:19;;;;;;;9.90;6.47;;;10.50;99.90;;;;;;5051174;28;20049;-37
2023/03/19 02:39:50;;;;;;;8.70;6.40;;;10.50;99.90;;;;;;5051636;28;20052;-37
2023/03/19 02:42:17;;;;;;;8.68;5.82;;;10.50;99.90;;;;;;5050325;28;20049;-37
2023/03/19 02:44:46;;;;;;;8.50;6.00;;;10.50;99.90;;;;;;5051361;28;20056;-37
2023/03/19 02:47:13;;;;;;;8.35;6.10;;;10.50;99.90;;;;;;5062968;28;20088;-37
2023/03/19 02:49:40;;;;;;;8.13;5.47;;;10.50;99.90;;;;;;5060091;28;20079;-36
2023/03/19 02:52:07;;;;;;;7.90;6.28;;;10.50;99.90;;;;;;5051311;28;20052;-36
2023/03/19 02:54:34;;;;;;;8.20;5.47;;;10.50;99.90;;;;;;5049938;28;20045;-36
2023/03/19 02:57:01;;;;;;;8.07;5.80;;;10.50;99.90;;;;;;5049102;28;20496;-36
2023/03/19 02:59:28;;;;;;;9.18;5.40;;;10.50;99.90;;;;;;5049245;28;20048;-37
2023/03/19 03:01:56;;;;;;;7.18;5.78;;;10.50;99.90;;;;;;5049443;28;20049;-36
2023/03/19 03:04:23;;;;;;;8.23;5.30;;;10.40;99.90;;;;;;5062030;28;20056;-37
2023/03/19 03:06:50;;;;;;;9.20;5.32;;;10.40;99.90;;;;;;5057327;28;20048;-36
2023/03/19 03:09:17;;;;;;;7.07;5.00;;;10.40;99.90;;;;;;5050837;28;20455;-37
2023/03/19 03:11:44;;;;;;;5.78;4.68;;;10.40;99.90;;;;;;5052199;28;20060;-37
2023/03/19 03:14:10;;;;;;;7.85;4.97;;;10.40;99.90;;;;;;5051034;28;20106;-36
2023/03/19 03:16:37;;;;;;;7.65;4.78;;;10.40;99.90;;;;;;5051239;28;20045;-36
2023/03/19 03:19:05;;;;;;;7.30;4.70;;;10.40;99.90;;;;;;5065415;28;20053;-36
2023/03/19 03:21:33;;;;;;;8.57;5.32;;;10.40;99.90;;;;;;5064951;28;20091;-37
2023/03/19 03:24:00;;;;;;;7.72;5.10;;;10.30;99.90;;;;;;5051410;28;20053;-36
2023/03/19 03:26:27;;;;;;;5.55;4.50;;;10.30;99.90;;;;;;5049647;28;20475;-36
2023/03/19 03:28:54;;;;;;;9.02;4.95;;;10.30;99.90;;;;;;5050993;28;20146;-36
2023/03/19 03:31:21;;;;;;;7.70;5.00;;;10.30;99.90;;;;;;5050159;28;20096;-36
2023/03/19 03:33:47;;;;;;;8.15;4.30;;;10.30;99.90;;;;;;5063325;28;20088;-36
2023/03/19 03:36:16;;;;;;;8.23;4.70;;;10.30;99.90;;;;;;5051122;28;20152;-37
2023/03/19 03:38:43;;;;;;;8.30;4.28;;;10.20;99.90;;;;;;5066720;28;20040;-37
2023/03/19 03:41:10;;;;;;;6.85;4.40;;;10.40;99.90;;;;;;5055169;28;20132;-37
2023/03/19 03:43:37;;;;;;;7.13;4.60;;;10.30;99.90;;;;;;5050908;28;20080;-36
2023/03/19 03:46:03;;;;;;;6.38;4.40;;;10.30;99.90;;;;;;5050555;28;20102;-36
2023/03/19 03:48:30;;;;;;;6.43;4.15;;;10.30;99.90;;;;;;5050891;28;20099;-36
2023/03/19 03:50:57;;;;;;;6.78;4.78;;;10.30;99.90;;;;;;5031407;28;20088;-36
2023/03/19 03:53:25;;;;;;;7.82;4.45;;;10.30;99.90;;;;;;5049966;28;20095;-36
2023/03/19 03:55:52;;;;;;;7.90;5.22;;;10.30;99.90;;;;;;5054348;28;20050;-36
2023/03/19 03:58:19;;;;;;;6.30;4.93;;;10.30;99.90;;;;;;5054650;28;20103;-36
2023/03/19 04:00:46;;;;;;;7.80;4.90;;;10.30;99.90;;;;;;5062340;28;20095;-36
2023/03/19 04:03:13;;;;;;;6.72;4.82;;;10.30;99.90;;;;;;5070551;28;20076;-37
2023/03/19 04:05:40;;;;;;;6.05;5.03;;;10.30;99.90;;;;;;5066264;28;20064;-36
2023/03/19 04:08:07;;;;;;;7.57;4.97;;;10.30;99.90;;;;;;5054442;28;20055;-36
2023/03/19 04:10:35;;;;;;;7.72;5.43;;;10.30;99.90;;;;;;5068734;28;20049;-36
2023/03/19 04:13:02;;;;;;;6.93;5.28;;;10.30;99.90;;;;;;5069246;28;20421;-36
2023/03/19 04:15:29;;;;;;;9.52;5.78;;;10.30;99.90;;;;;;5054761;28;20057;-36
2023/03/19 04:17:56;;;;;;;7.38;5.35;;;10.30;99.90;;;;;;5054091;28;20052;-36
2023/03/19 04:20:23;;;;;;;8.30;6.60;;;10.30;99.90;;;;;;5068692;28;20049;-36
2023/03/19 04:22:49;;;;;;;9.43;7.00;;;10.30;99.90;;;;;;5052619;28;20099;-36
2023/03/19 04:25:17;;;;;;;9.05;6.57;;;10.30;99.90;;;;;;5051856;28;20048;-36
2023/03/19 04:27:45;;;;;;;10.07;7.00;;;10.30;99.90;;;;;;5054507;28;20076;-35
2023/03/19 04:30:13;;;;;;;8.82;6.90;;;10.30;99.90;;;;;;5059609;28;20044;-36
2023/03/19 04:32:40;;;;;;;9.77;6.97;;;10.30;99.90;;;;;;5058408;28;20378;-36
2023/03/19 04:35:07;;;;;;;11.65;7.88;;;10.30;99.90;;;;;;5053232;28;20045;-36
2023/03/19 04:37:34;;;;;;;10.65;7.53;;;10.30;99.90;;;;;;5052733;28;20068;-36
2023/03/19 04:40:01;;;;;;;9.93;7.68;;;10.30;99.90;;;;;;5054033;28;20329;-36
2023/03/19 04:42:28;;;;;;;11.65;7.88;;;10.30;99.90;;;;;;5053026;28;20052;-35
2023/03/19 04:44:56;;;;;;;9.77;8.15;;;10.20;99.90;;;;;;5054197;28;20134;-37
2023/03/19 04:47:23;;;;;;;9.57;7.68;;;10.20;99.90;;;;;;5054334;28;20049;-36
2023/03/19 04:49:50;;;;;;;14.45;7.97;;;10.10;99.90;;;;;;5052462;28;20045;-37
2023/03/19 04:52:17;;;;;;;8.57;6.90;;;10.10;99.90;;;;;;5052835;28;20076;-37
2023/03/19 04:54:44;;;;;;;9.38;7.45;;;10.10;99.90;;;;;;5053196;28;20381;-36
2023/03/19 04:57:11;;;;;;;7.97;7.13;;;10.00;99.90;;;;;;5052980;28;20053;-36
2023/03/19 04:59:38;;;;;;;8.48;6.82;;;10.00;99.90;;;;;;5054644;28;20056;-36
2023/03/19 05:02:07;;;;;;;9.23;6.72;;;10.00;99.90;;;;;;5067174;28;20471;-36
2023/03/19 05:04:33;;;;;;;9.48;7.57;;;9.90;99.90;;;;;;5070925;28;20048;-35
2023/03/19 05:07:01;;;;;;;8.85;7.07;;;9.90;99.90;;;;;;5053922;28;20049;-36
2023/03/19 05:09:29;;;;;;;8.45;6.43;;;9.90;99.90;;;;;;5052168;28;20048;-36
2023/03/19 05:11:57;;;;;;;9.32;6.80;;;9.90;99.90;;;;;;5052291;28;20053;-36
2023/03/19 05:14:24;;;;;;;12.57;6.53;;;9.80;99.90;;;;;;5053158;28;20060;-35
2023/03/19 05:16:50;;;;;;;8.63;6.50;;;9.80;99.90;;;;;;5051939;28;20122;-35
2023/03/19 05:19:19;;;;;;;9.40;6.70;;;9.70;99.90;;;;;;5056002;28;20064;-35
2023/03/19 05:21:46;;;;;;;7.93;5.72;;;9.70;99.90;;;;;;5053247;28;20064;-35
2023/03/19 05:24:13;;;;;;;7.90;5.43;;;9.70;99.90;;;;;;5051605;28;20089;-35
2023/03/19 05:26:39;;;;;;;6.95;6.03;;;9.60;99.90;;;;;;5053005;28;20435;-35
2023/03/19 05:29:09;;;;;;;8.52;6.57;;;9.60;99.90;;;;;;5051907;28;20110;-35
2023/03/19 05:31:36;;;;;;;7.10;5.95;;;9.60;99.90;;;;;;5069960;28;20452;-35
2023/03/19 05:34:03;;;;;;;7.60;6.00;;;9.60;99.90;;;;;;5052959;28;20064;-35
2023/03/19 05:36:32;;;;;;;7.40;5.93;;;9.50;99.90;;;;;;5052698;28;20476;-35
2023/03/19 05:38:58;;;;;;;8.13;6.25;;;9.50;99.90;;;;;;5051411;28;20439;-35
2023/03/19 05:41:25;;;;;;;9.93;6.03;;;9.50;99.90;;;;;;5051427;28;20056;-35
2023/03/19 05:43:52;;;;;;;9.27;6.22;;;9.50;99.90;;;;;;5067850;28;20088;-35
2023/03/19 05:46:19;;;;;;;10.65;6.70;;;9.50;99.90;;;;;;5051785;28;20381;-36
2023/03/19 05:48:46;;;;;;;9.68;7.03;;;9.40;99.90;;;;;;5052306;28;20053;-36
2023/03/19 05:51:13;;;;;;;9.13;6.57;;;9.40;99.90;;;;;;5052465;28;20053;-35
2023/03/19 05:53:41;;;;;;;11.60;7.10;;;9.40;99.90;;;;;;5066518;28;20538;-36
2023/03/19 05:56:08;;;;;;;9.95;6.95;;;9.40;99.90;;;;;;5051920;28;20052;-36
2023/03/19 05:58:35;;;;;;;9.10;7.10;;;9.40;99.90;;;;;;5052621;28;20448;-36
2023/03/19 06:01:02;;;;;;;9.10;6.88;;;9.30;99.90;;;;;;5054199;28;20455;-36
2023/03/19 06:03:29;;;;;;;9.07;7.40;;;9.40;99.90;;;;;;5051564;28;20071;-36
2023/03/19 06:05:56;;;;;;;9.30;7.35;;;9.30;99.90;;;;;;5062962;28;20402;-36
2023/03/19 06:08:23;;;;;;;10.35;7.68;;;9.30;99.90;;;;;;5051190;28;20055;-36
2023/03/19 06:10:52;;;;;;;12.27;7.85;;;9.30;99.90;;;;;;5053164;28;20095;-36
2023/03/19 06:13:19;;;;;;;11.75;7.93;;;9.30;99.90;;;;;;5051051;28;20061;-36
2023/03/19 06:15:47;;;;;;;12.30;9.82;;;9.20;99.90;;;;;;5056887;28;20048;-36
2023/03/19 06:18:14;;;;;;;12.00;9.93;;;9.20;99.90;;;;;;5050764;28;20509;-36
2023/03/19 06:20:41;;;;;;;10.13;8.10;;;9.20;99.90;;;;;;5052063;28;20104;-36
2023/03/19 06:23:08;;;;;;;9.85;8.50;;;9.20;99.90;;;;;;5050173;28;20106;-36
2023/03/19 06:25:35;;;;;;;12.02;8.52;;;9.20;99.90;;;;;;5048149;28;20076;-36
2023/03/19 06:28:03;;;;;;;13.00;9.63;;;9.20;99.90;;;;;;5041083;28;20136;-36
2023/03/19 06:30:30;;;;;;;12.50;9.30;;;9.20;99.90;;;;;;5036352;28;20053;-36
2023/03/19 06:32:57;;;;;;;14.73;9.15;;;9.20;99.90;;;;;;5049774;28;20095;-36
2023/03/19 06:35:24;;;;;;;11.15;8.48;;;9.20;99.90;;;;;;5067268;28;20405;-36
2023/03/19 06:37:52;;;;;;;11.80;8.20;;;9.20;99.90;;;;;;5052071;28;20047;-36
2023/03/19 06:40:19;;;;;;;10.48;8.70;;;9.10;99.90;;;;;;5059897;28;20055;-36
2023/03/19 06:42:46;;;;;;;10.52;8.63;;;9.20;99.90;;;;;;5051528;28;20538;-36
2023/03/19 06:45:15;;;;;;;13.27;9.75;;;9.20;99.90;;;;;;5051968;28;20056;-36
2023/03/19 06:47:42;;;;;;;12.80;9.95;;;9.10;99.90;;;;;;5045479;28;20045;-36
2023/03/19 06:50:10;;;;;;;16.23;11.05;;;9.10;99.90;;;;;;5051275;28;20111;-36
2023/03/19 06:52:37;;;;;;;15.95;9.63;;;9.10;99.90;;;;;;5048010;28;20499;-36
2023/03/19 06:55:04;;;;;;;13.55;9.93;;;9.10;99.90;;;;;;5051432;28;20480;-36
2023/03/19 06:57:31;;;;;;;13.77;10.55;;;9.10;99.90;;;;;;5050201;28;20088;-36
2023/03/19 06:59:57;;;;;;;13.15;10.48;;;9.10;99.90;;;;;;5049657;28;20053;-36
2023/03/19 07:02:26;;;;;;;17.35;12.40;;;9.10;99.90;;;;;;5050149;28;20390;-36
2023/03/19 07:04:53;;;;;;;15.70;12.63;;;9.20;99.90;;;;;;5051057;28;20048;-36
2023/03/19 07:07:20;;;;;;;17.55;12.75;;;9.30;99.90;;;;;;5048188;28;20060;-36
2023/03/19 07:09:47;;;;;;;17.20;12.48;;;9.30;99.90;;;;;;5062276;28;20052;-36
2023/03/19 07:12:14;;;;;;;16.33;13.30;;;9.40;99.90;;;;;;5051083;28;20107;-36
2023/03/19 07:14:40;;;;;;;17.42;12.95;;;9.60;99.90;;;;;;5064961;28;20052;-36
2023/03/19 07:17:08;;;;;;;17.45;13.27;;;9.60;99.90;;;;;;5048888;28;20432;-36
2023/03/19 07:19:36;;;;;;;16.77;13.68;;;9.70;99.90;;;;;;5047422;28;20118;-36
2023/03/19 07:22:03;;;;;;;17.65;14.43;;;9.80;99.90;;;;;;5047263;28;20075;-36
2023/03/19 07:24:29;;;;;;;16.63;13.77;;;9.90;99.90;;;;;;5048626;28;20060;-36
2023/03/19 07:26:57;;;;;;;16.33;13.07;;;10.00;99.90;;;;;;5053227;28;20045;-36
2023/03/19 07:29:24;;;;;;;17.60;12.82;;;10.10;99.90;;;;;;5054411;28;20488;-36
2023/03/19 07:31:51;;;;;;;18.02;13.52;;;10.20;99.90;;;;;;5053301;28;20095;-36
2023/03/19 07:34:18;;;;;;;17.58;13.02;;;10.30;99.90;;;;;;5047032;28;20440;-36
2023/03/19 07:36:46;;;;;;;16.27;12.43;;;10.40;99.90;;;;;;5052087;28;20495;-36
2023/03/19 07:39:13;;;;;;;16.85;13.35;;;10.50;99.90;;;;;;5054394;28;20055;-36
2023/03/19 07:41:40;;;;;;;17.35;13.77;;;10.60;99.90;;;;;;5056486;28;20083;-36
2023/03/19 07:44:06;;;;;;;17.38;13.30;;;10.60;99.90;;;;;;5049096;28;20053;-36
2023/03/19 07:46:33;;;;;;;16.35;13.20;;;10.70;99.90;;;;;;5051618;28;20044;-36
2023/03/19 07:49:00;;;;;;;16.73;13.73;;;10.80;99.90;;;;;;5054197;28;20385;-36
2023/03/19 07:51:27;;;;;;;15.63;13.07;;;10.90;99.90;;;;;;5050835;28;20138;-36
2023/03/19 07:53:55;;;;;;;18.77;14.27;;;11.10;99.90;;;;;;5051377;28;20110;-36
2023/03/19 07:56:22;;;;;;;18.55;14.40;;;11.20;99.90;;;;;;5051962;28;20116;-36
2023/03/19 07:58:49;;;;;;;17.50;14.55;;;11.30;99.90;;;;;;5050939;28;20041;-36
2023/03/19 08:01:15;;;;;;;18.00;14.48;;;11.40;99.90;;;;;;5054354;28;20114;-36
2023/03/19 08:03:42;;;;;;;20.70;15.98;;;11.60;99.90;;;;;;5053754;28;20461;-36
2023/03/19 08:06:09;;;;;;;18.98;13.77;;;11.80;99.90;;;;;;5053255;28;20041;-36
2023/03/19 08:08:36;;;;;;;16.63;14.23;;;11.90;99.90;;;;;;5053795;28;20049;-37
2023/03/19 08:11:05;;;;;;;18.35;14.75;;;12.00;99.90;;;;;;5052195;28;20077;-35
2023/03/19 08:13:32;;;;;;;17.70;13.40;;;12.10;99.90;;;;;;5042437;28;20089;-36
2023/03/19 08:15:59;;;;;;;16.73;13.35;;;12.10;99.90;;;;;;5041796;28;20049;-36
2023/03/19 08:18:26;;;;;;;19.75;13.85;;;12.00;99.90;;;;;;5065769;28;20079;-36
2023/03/19 08:20:52;;;;;;;15.02;13.23;;;12.00;99.90;;;;;;5069045;28;20470;-36
2023/03/19 08:23:19;;;;;;;17.92;14.65;;;11.90;99.90;;;;;;5052721;28;20134;-36
2023/03/19 08:25:46;;;;;;;18.90;15.13;;;11.90;99.90;;;;;;5053618;28;20092;-36
2023/03/19 08:28:14;;;;;;;16.92;14.57;;;11.90;99.90;;;;;;5054455;28;20137;-36
2023/03/19 08:30:41;;;;;;;20.20;14.55;;;11.90;99.90;;;;;;5050954;28;20053;-36
2023/03/19 08:33:08;;;;;;;15.93;13.27;;;11.90;99.90;;;;;;5034400;28;20492;-36
2023/03/19 08:35:35;;;;;;;18.40;14.88;;;11.80;99.90;;;;;;5052994;28;20075;-35
2023/03/19 08:38:02;;;;;;;16.65;12.43;;;11.80;99.90;;;;;;5052192;28;20053;-35
2023/03/19 08:40:28;;;;;;;17.02;12.65;;;11.80;99.90;;;;;;5053619;28;20409;-35
2023/03/19 08:42:55;;;;;;;16.48;12.85;;;11.80;99.90;;;;;;5053227;28;20048;-35
2023/03/19 08:45:23;;;;;;;14.52;12.45;;;11.80;99.90;;;;;;5070855;28;20165;-35
2023/03/19 08:47:50;;;;;;;14.77;12.88;;;11.80;99.90;;;;;;5043641;28;20435;-35
2023/03/19 08:50:17;;;;;;;13.77;11.95;;;11.80;99.90;;;;;;5048936;28;20112;-34
2023/03/19 08:52:44;;;;;;;15.10;10.73;;;11.90;99.90;;;;;;5051311;28;20087;-36
2023/03/19 08:55:11;;;;;;;13.85;10.75;;;11.90;99.90;;;;;;5049901;28;20070;-35
2023/03/19 08:57:38;;;;;;;12.48;10.65;;;12.00;99.90;;;;;;5047622;28;20470;-35
2023/03/19 09:00:05;;;;;;;14.05;10.80;;;11.90;99.90;;;;;;5053830;28;20052;-34
2023/03/19 09:02:33;;;;;;;15.10;11.48;;;11.90;99.90;;;;;;5048589;28;20084;-36
2023/03/19 09:05:00;;;;;;;12.73;10.55;;;12.00;99.90;;;;;;5051189;28;20048;-35
2023/03/19 09:07:27;;;;;;;16.35;11.23;;;11.90;99.90;;;;;;5044620;28;20090;-36
2023/03/19 09:09:54;;;;;;;17.60;11.75;;;12.00;99.90;;;;;;5058252;28;20403;-35
2023/03/19 09:12:21;;;;;;;15.38;11.77;;;12.00;99.90;;;;;;5059118;28;20051;-35
2023/03/19 09:14:48;;;;;;;15.32;11.38;;;12.00;99.90;;;;;;5052043;28;20045;-35
2023/03/19 09:17:17;;;;;;;14.27;11.55;;;12.10;99.90;;;;;;5049875;28;20087;-35
2023/03/19 09:19:45;;;;;;;14.30;10.95;;;12.10;99.90;;;;;;5048986;28;20055;-35
2023/03/19 09:22:12;;;;;;;14.60;10.93;;;12.10;99.90;;;;;;5051307;28;20512;-35
2023/03/19 09:24:38;;;;;;;14.90;11.43;;;12.20;99.90;;;;;;5051442;28;20126;-35
2023/03/19 09:27:05;;;;;;;12.75;11.10;;;12.20;99.90;;;;;;5046958;28;20775;-36
2023/03/19 09:29:32;;;;;;;15.25;11.50;;;12.20;99.90;;;;;;5044762;28;20056;-36
2023/03/19 09:31:59;;;;;;;13.15;10.98;;;12.20;99.90;;;;;;5052790;28;20373;-35
2023/03/19 09:34:26;;;;;;;15.48;11.75;;;12.30;99.90;;;;;;5051510;28;20136;-36
2023/03/19 09:36:55;;;;;;;12.55;10.77;;;12.30;99.90;;;;;;5057033;28;20076;-35
2023/03/19 09:39:21;;;;;;;12.93;11.23;;;12.30;99.90;;;;;;5046010;28;20482;-36
2023/03/19 09:41:58;;;;;;;13.13;11.15;;;12.40;99.90;;;;;;5044811;28;20067;-34
2023/03/19 09:44:27;;;;;;;13.23;10.90;;;12.40;99.90;;;;;;5047578;28;20048;-37
2023/03/19 09:46:56;;;;;;;12.13;10.88;;;12.40;99.90;;;;;;5045408;28;21830;-35
2023/03/19 09:49:25;;;;;;;16.08;11.38;;;12.50;99.90;;;;;;5039628;28;20068;-35
2023/03/19 09:51:54;;;;;;;14.88;10.35;;;12.50;99.90;;;;;;5049448;28;20085;-35
2023/03/19 09:54:32;;;;;;;14.80;11.57;;;12.60;99.90;;;;;;5046365;28;20136;-36
2023/03/19 09:56:59;;;;;;;15.05;12.18;;;12.60;99.90;;;;;;5050408;28;20131;-35
2023/03/19 09:59:26;;;;;;;16.13;11.68;;;12.60;99.90;;;;;;5053360;28;20090;-36
2023/03/19 10:01:58;;;;;;;13.68;11.00;;;12.70;99.90;;;;;;5042948;28;20704;-36
2023/03/19 10:04:43;;;;;;;13.65;11.18;;;12.70;99.90;;;;;;5047124;28;20251;-35
2023/03/19 10:07:22;;;;;;;16.63;12.85;;;12.70;99.90;;;;;;5037969;28;20103;-36
2023/03/19 10:09:54;;;;;;;13.90;12.40;;;12.80;99.90;;;;;;5041945;28;20052;-36
2023/03/19 10:12:27;;;;;;;18.48;14.23;;;12.70;99.90;;;;;;5044675;28;20546;-36
2023/03/19 10:15:21;;;;;;;19.95;14.35;;;12.60;99.90;;;;;;5040723;28;20056;-36
2023/03/19 10:18:00;;;;;;;17.33;13.82;;;12.50;99.90;;;;;;5047242;28;20037;-35
2023/03/19 10:20:33;;;;;;;19.88;14.60;;;12.50;99.90;;;;;;5040595;28;20446;-36
2023/03/19 10:23:05;;;;;;;17.92;14.25;;;12.40;99.90;;;;;;5042851;28;20098;-36
2023/03/19 10:25:32;;;;;;;19.20;14.00;;;12.40;99.90;;;;;;5046421;28;20409;-36
2023/03/19 10:28:00;;;;;;;18.55;14.23;;;12.40;99.90;;;;;;5054010;28;20062;-36
2023/03/19 10:30:27;;;;;;;17.02;14.68;;;12.50;99.90;;;;;;5046098;28;21479;-35
2023/03/19 10:32:57;;;;;;;16.40;14.38;;;12.50;99.90;;;;;;5045774;28;20114;-36
2023/03/19 10:35:27;;;;;;;20.10;15.83;;;12.60;99.90;;;;;;5043432;28;20041;-35
2023/03/19 10:37:54;;;;;;;17.70;15.20;;;12.60;99.90;;;;;;5042404;28;20059;-35
2023/03/19 10:40:26;;;;;;;20.55;14.50;;;12.70;99.90;;;;;;5050554;28;20056;-35
2023/03/19 10:43:12;;;;;;;18.90;15.88;;;12.70;99.90;;;;;;5050031;28;20138;-35
2023/03/19 10:45:39;;;;;;;18.58;15.63;;;12.80;99.90;;;;;;5047688;28;20500;-35
2023/03/19 10:48:06;;;;;;;20.25;16.00;;;12.80;99.90;;;;;;5046612;28;20049;-34
2023/03/19 10:50:35;;;;;;;18.30;15.95;;;12.80;99.90;;;;;;5048016;28;20063;-35
2023/03/19 10:53:05;;;;;;;17.65;15.25;;;12.90;99.90;;;;;;5052159;28;20052;-36
2023/03/19 10:55:33;;;;;;;19.98;16.90;;;12.80;99.90;;;;;;5040394;28;20130;-36
2023/03/19 10:58:05;;;;;;;19.95;16.27;;;13.00;99.90;;;;;;5045096;28;20455;-35
2023/03/19 11:00:32;;;;;;;19.13;16.40;;;13.00;99.90;;;;;;5043507;28;20158;-35
2023/03/19 11:03:02;;;;;;;20.60;16.30;;;13.00;99.90;;;;;;5052438;28;20053;-35
2023/03/19 11:05:30;;;;;;;22.10;16.42;;;13.00;99.90;;;;;;5063518;28;20052;-35
2023/03/19 11:07:58;;;;;;;18.85;16.48;;;13.10;99.90;;;;;;5044564;28;20051;-35
2023/03/19 11:10:26;;;;;;;19.08;16.05;;;13.10;99.90;;;;;;5048055;28;20049;-35
2023/03/19 11:13:45;;;;;;;20.52;15.13;;;13.10;99.90;;;;;;5048972;28;20148;-34
2023/03/19 11:16:55;;;;;;;15.85;13.68;;;13.10;99.90;;;;;;5042790;28;20114;-34
2023/03/19 11:19:23;;;;;;;17.55;14.60;;;13.10;99.90;;;;;;5040031;28;22137;-36
2023/03/19 11:22:10;;;;;;;17.13;14.35;;;13.20;99.90;;;;;;5040897;28;20045;-35
2023/03/19 11:24:37;;;;;;;16.55;14.00;;;13.20;99.90;;;;;;5041585;28;20067;-36
2023/03/19 11:27:05;;;;;;;17.77;14.20;;;13.30;99.90;;;;;;5040679;28;20444;-35
2023/03/19 11:29:32;;;;;;;18.25;14.75;;;13.30;99.90;;;;;;5040272;28;20442;-35
2023/03/19 11:32:06;;;;;;;18.08;14.27;;;13.30;99.90;;;;;;5045632;28;20045;-36
2023/03/19 11:34:35;;;;;;;18.63;15.30;;;13.30;99.90;;;;;;5043678;28;20081;-36
2023/03/19 11:37:05;;;;;;;15.60;13.77;;;13.40;99.90;;;;;;5043801;28;20048;-35
2023/03/19 11:39:36;;;;;;;16.20;13.60;;;13.60;99.90;;;;;;5043041;28;20080;-36
2023/03/19 11:42:22;;;;;;;17.08;15.25;;;13.70;99.90;;;;;;5045701;28;20140;-36
2023/03/19 11:44:53;;;;;;;19.27;14.25;;;13.80;99.90;;;;;;5045416;28;20081;-36
2023/03/19 11:47:24;;;;;;;19.05;14.50;;;13.90;99.90;;;;;;5040592;28;20123;-36
2023/03/19 11:50:00;;;;;;;16.58;13.90;;;13.90;99.90;;;;;;5045811;28;20055;-35
2023/03/19 11:53:17;;;;;;;17.13;14.30;;;14.00;99.90;;;;;;5044955;28;20033;-34
2023/03/19 11:55:46;;;;;;;16.95;14.18;;;14.00;99.90;;;;;;5046585;28;20554;-35
2023/03/19 11:58:33;;;;;;;17.42;13.55;;;14.00;99.90;;;;;;5047828;28;20060;-36
2023/03/19 12:01:00;;;;;;;18.67;14.13;;;14.10;99.90;;;;;;5048809;28;20114;-35
2023/03/19 12:03:57;;;;;;;16.65;13.90;;;14.10;99.90;;;;;;5049319;28;20110;-34
2023/03/19 12:06:31;;;;;;;19.52;14.68;;;14.10;99.90;;;;;;5041220;28;20052;-35
2023/03/19 12:08:59;;;;;;;18.13;14.95;;;14.10;99.90;;;;;;5045174;28;20037;-35
2023/03/19 12:11:29;;;;;;;17.58;14.40;;;14.10;99.90;;;;;;5030561;28;20409;-34
2023/03/19 12:14:07;;;;;;;18.85;15.45;;;14.10;99.90;;;;;;5049775;28;20462;-34
2023/03/19 12:16:39;;;;;;;17.50;13.88;;;14.20;99.90;;;;;;5046628;28;20515;-34
2023/03/19 12:19:17;;;;;;;15.55;12.85;;;14.10;99.90;;;;;;5046604;28;20060;-35
2023/03/19 12:21:54;;;;;;;16.38;13.35;;;14.10;99.90;;;;;;5049538;28;20132;-35
2023/03/19 12:24:24;;;;;;;15.80;12.52;;;14.10;99.90;;;;;;5056739;28;20115;-36
2023/03/19 12:26:56;;;;;;;14.77;12.63;;;14.10;99.90;;;;;;5047663;28;20579;-35
2023/03/19 12:29:24;;;;;;;14.65;12.27;;;14.30;99.90;;;;;;5045066;28;20049;-35
2023/03/19 12:32:17;;;;;;;18.25;14.25;;;14.50;99.90;;;;;;5040640;28;20059;-35
2023/03/19 12:34:46;;;;;;;17.38;13.73;;;14.60;99.90;;;;;;5050555;28;20439;-35
2023/03/19 12:37:17;;;;;;;16.27;13.43;;;14.70;99.90;;;;;;5048890;28;20053;-35
2023/03/19 12:39:48;;;;;;;17.65;13.43;;;14.80;99.90;;;;;;5053760;28;20110;-35
2023/03/19 12:42:16;;;;;;;15.73;12.50;;;15.00;99.90;;;;;;5053328;28;20481;-34
2023/03/19 12:44:44;;;;;;;19.00;13.93;;;15.10;99.90;;;;;;5057444;28;20048;-35